Time;durP1;ratioP1;P1;durP2;ratioP2;P2;SDS_P1;SDS_P2;PMS_P1;PMS_P2;Temp;Humidity;BMP_temperature;BMP_pressure;BME280_temperature;BME280_humidity;BME280_pressure;Samples;Min_cycle;Max_cycle;Signal;HPM_P1;HPM_P2
2023/05/06 05:51:36;;;;;;;7.97;6.55;;;;;;;;;;10518279;27;20447;-87
2023/05/06 05:56:37;;;;;;;17.77;12.75;;;;;;;;;;10519073;28;20033;-87
2023/05/06 06:01:38;;;;;;;;;;;;;;;;;;10550246;22;20047;-84
2023/05/06 06:06:39;;;;;;;5.03;4.20;;;;;;;;;;10463662;28;19905;-84
2023/05/06 06:11:40;;;;;;;5.65;4.22;;;;;;;;;;10483422;28;20363;-83
2023/05/06 06:16:41;;;;;;;7.53;5.53;;;;;;;;;;10505864;28;20056;-83
2023/05/06 06:21:42;;;;;;;8.15;4.78;;;;;;;;;;10512342;28;20031;-83
2023/05/06 06:26:43;;;;;;;5.78;4.45;;;;;;;;;;10508819;28;20453;-83
2023/05/06 06:31:44;;;;;;;5.88;4.68;;;;;;;;;;10504322;28;20451;-83
2023/05/06 06:36:45;;;;;;;6.75;5.90;;;;;;;;;;10503523;28;20044;-83
2023/05/06 06:41:46;;;;;;;7.28;6.38;;;;;;;;;;10503299;28;20456;-83
2023/05/06 06:46:48;;;;;;;10.90;8.35;;;;;;;;;;10502920;28;20043;-83
2023/05/06 06:51:50;;;;;;;6.70;4.72;;;;;;;;;;10501581;28;20486;-83
2023/05/06 06:56:56;;;;;;;9.27;7.10;;;;;;;;;;10504362;28;20137;-83
2023/05/06 07:01:57;;;;;;;10.70;8.38;;;;;;;;;;10482797;28;20500;-83
2023/05/06 07:06:58;;;;;;;8.20;7.13;;;;;;;;;;10469045;28;20120;-82
2023/05/06 07:11:59;;;;;;;11.30;10.10;;;;;;;;;;10467289;28;20025;-82
2023/05/06 07:17:01;;;;;;;3.45;2.80;;;;;;;;;;10464842;28;20029;-85
2023/05/06 07:22:02;;;;;;;5.28;4.20;;;;;;;;;;10471478;28;20029;-84
2023/05/06 07:27:03;;;;;;;6.18;5.00;;;;;;;;;;10471778;28;20052;-85
2023/05/06 07:32:05;;;;;;;7.07;5.32;;;;;;;;;;10471715;28;20025;-81
2023/05/06 07:37:07;;;;;;;6.90;5.40;;;;;;;;;;10478548;28;20032;-83
2023/05/06 07:42:33;;;;;;;5.43;4.90;;;;;;;;;;10481132;28;20088;-81
2023/05/06 07:47:35;;;;;;;5.88;5.28;;;;;;;;;;10480366;28;20033;-82
2023/05/06 07:52:39;;;;;;;7.82;5.40;;;;;;;;;;10478505;28;20028;-82
2023/05/06 07:57:41;;;;;;;7.13;4.40;;;;;;;;;;10481783;28;20025;-82
2023/05/06 08:02:47;;;;;;;4.53;4.10;;;;;;;;;;10479766;28;20048;-81
2023/05/06 08:07:50;;;;;;;5.75;4.25;;;;;;;;;;10466546;28;20037;-79
2023/05/06 08:12:51;;;;;;;7.78;4.95;;;;;;;;;;10495521;28;20028;-82
2023/05/06 08:17:56;;;;;;;5.72;4.07;;;;;;;;;;10478820;28;20102;-83
2023/05/06 08:23:19;;;;;;;5.07;3.92;;;;;;;;;;10478480;28;20126;-82
2023/05/06 08:28:58;;;;;;;7.40;4.10;;;;;;;;;;10487855;28;20033;-82
2023/05/06 08:33:59;;;;;;;5.33;3.50;;;;;;;;;;10477510;28;20068;-80
2023/05/06 08:39:00;;;;;;;6.03;3.55;;;;;;;;;;10471030;28;20395;-83
2023/05/06 08:44:03;;;;;;;5.45;3.45;;;;;;;;;;10481219;28;20036;-83
2023/05/06 08:49:04;;;;;;;5.70;4.22;;;;;;;;;;10476114;28;20041;-82
2023/05/06 08:54:05;;;;;;;7.88;4.05;;;;;;;;;;10477533;28;20487;-82
2023/05/06 08:59:08;;;;;;;6.43;3.85;;;;;;;;;;10459485;28;20039;-83
2023/05/06 09:04:11;;;;;;;5.28;4.07;;;;;;;;;;10457011;28;20044;-81
2023/05/06 09:09:14;;;;;;;6.20;5.57;;;;;;;;;;10456277;28;20044;-82
2023/05/06 09:14:15;;;;;;;5.25;3.72;;;;;;;;;;10457115;28;20049;-82
2023/05/06 09:19:17;;;;;;;5.72;4.53;;;;;;;;;;10481888;28;20045;-85
2023/05/06 09:24:19;;;;;;;4.53;3.10;;;;;;;;;;10488411;28;20048;-84
2023/05/06 09:29:20;;;;;;;9.00;3.33;;;;;;;;;;10476647;28;20051;-85
2023/05/06 09:34:22;;;;;;;7.60;6.25;;;;;;;;;;10473855;28;20527;-85
2023/05/06 09:39:26;;;;;;;5.35;3.30;;;;;;;;;;10471884;28;20029;-84
2023/05/06 09:44:28;;;;;;;3.80;3.38;;;;;;;;;;10471245;28;20025;-84
2023/05/06 09:49:29;;;;;;;7.43;3.25;;;;;;;;;;10468130;28;20029;-84
2023/05/06 09:54:30;;;;;;;5.50;3.67;;;;;;;;;;10478300;28;20049;-84
2023/05/06 09:59:32;;;;;;;4.10;2.50;;;;;;;;;;10473179;28;20028;-85
2023/05/06 10:04:35;;;;;;;3.35;2.20;;;;;;;;;;10469831;28;20128;-85
2023/05/06 10:09:37;;;;;;;2.90;1.85;;;;;;;;;;10472846;28;20157;-85
2023/05/06 10:14:38;;;;;;;4.10;2.75;;;;;;;;;;10474156;28;20083;-82
2023/05/06 10:19:46;;;;;;;3.03;2.00;;;;;;;;;;10470967;28;20033;-85
2023/05/06 10:25:04;;;;;;;8.85;7.95;;;;;;;;;;10470174;28;20029;-84
2023/05/06 10:30:06;;;;;;;4.35;2.72;;;;;;;;;;10472890;28;20092;-85
2023/05/06 10:35:15;;;;;;;4.85;2.40;;;;;;;;;;10499778;28;20029;-83
2023/05/06 10:40:16;;;;;;;3.83;2.30;;;;;;;;;;10478375;28;20076;-84
2023/05/06 10:45:17;;;;;;;3.95;1.73;;;;;;;;;;10472580;28;20092;-82
2023/05/06 10:50:22;;;;;;;2.90;1.80;;;;;;;;;;10477249;28;20029;-82
2023/05/06 10:55:33;;;;;;;4.20;2.95;;;;;;;;;;10471745;28;20032;-81
2023/05/06 11:00:35;;;;;;;3.47;2.28;;;;;;;;;;10472534;28;20044;-82
2023/05/06 11:05:48;;;;;;;4.03;1.67;;;;;;;;;;10479129;28;20025;-81
2023/05/06 11:10:50;;;;;;;3.22;1.70;;;;;;;;;;10474364;28;20087;-81
2023/05/06 11:15:57;;;;;;;27.13;22.73;;;;;;;;;;10472429;28;20025;-84
2023/05/06 11:21:01;;;;;;;4.63;1.77;;;;;;;;;;10461240;28;20119;-84
2023/05/06 11:26:06;;;;;;;2.78;1.63;;;;;;;;;;10478780;28;20372;-84
2023/05/06 11:31:07;;;;;;;2.58;1.58;;;;;;;;;;10477984;28;20024;-84
2023/05/06 11:36:13;;;;;;;1.92;1.25;;;;;;;;;;10486893;28;20025;-83
2023/05/06 11:41:15;;;;;;;2.22;1.50;;;;;;;;;;10488254;28;20045;-83
2023/05/06 11:46:17;;;;;;;4.22;1.27;;;;;;;;;;10475339;28;20063;-83
2023/05/06 11:51:22;;;;;;;2.50;1.40;;;;;;;;;;10475618;28;20445;-84
2023/05/06 11:56:24;;;;;;;1.92;1.20;;;;;;;;;;10474973;28;20029;-81
2023/05/06 12:01:25;;;;;;;4.80;3.20;;;;;;;;;;10525116;22;20036;-83
2023/05/06 12:06:35;;;;;;;1.80;1.13;;;;;;;;;;10523382;28;20108;-80
2023/05/06 12:11:37;;;;;;;4.32;1.40;;;;;;;;;;10524784;28;20082;-80
2023/05/06 12:16:38;;;;;;;2.67;1.05;;;;;;;;;;10529068;28;20025;-82
2023/05/06 12:21:39;;;;;;;1.92;1.20;;;;;;;;;;10521579;28;20036;-81
2023/05/06 12:26:47;;;;;;;2.70;1.55;;;;;;;;;;10515583;28;20031;-82
2023/05/06 12:32:20;;;;;;;2.85;1.10;;;;;;;;;;10520702;28;20025;-83
2023/05/06 12:37:42;;;;;;;2.75;1.25;;;;;;;;;;10519191;28;20494;-83
2023/05/06 12:54:17;;;;;;;1.60;1.10;;;;;;;;;;10523850;28;20040;-83
2023/05/06 13:05:18;;;;;;;2.70;0.90;;;;;;;;;;10633570;27;20038;-83
2023/05/06 13:16:07;;;;;;;3.63;2.35;;;;;;;;;;10643846;27;20023;-84
2023/05/06 13:27:05;;;;;;;4.40;1.30;;;;;;;;;;10505335;27;20490;-83
2023/05/06 14:29:04;;;;;;;3.20;1.67;;;;;;;;;;10663605;27;20039;-86
2023/05/06 14:34:28;;;;;;;1.98;1.40;;;;;;;;;;10650156;27;20027;-85
2023/05/06 15:14:12;;;;;;;6.35;3.42;;;;;;;;;;10537184;27;20035;-84
2023/05/06 16:50:49;;;;;;;5.60;3.17;;;;;;;;;;10544229;28;20498;-84
2023/05/06 16:56:40;;;;;;;5.93;2.55;;;;;;;;;;10546140;28;20465;-84
2023/05/06 17:02:15;;;;;;;3.90;2.60;;;;;;;;;;10541568;28;20020;-83
2023/05/06 17:13:09;;;;;;;5.25;2.92;;;;;;;;;;10587244;27;20023;-84
2023/05/06 17:18:49;;;;;;;5.38;2.50;;;;;;;;;;10614686;27;20035;-84
2023/05/06 18:10:36;;;;;;;3.00;2.40;;;;;;;;;;10600688;28;20047;-86
2023/05/06 18:16:00;;;;;;;3.50;2.60;;;;;;;;;;10608043;28;20043;-86
2023/05/06 18:21:23;;;;;;;4.18;2.95;;;;;;;;;;10603167;28;20027;-86
2023/05/06 18:32:35;;;;;;;3.63;2.35;;;;;;;;;;10654115;28;20042;-86
